createdAt,value
2018-04-12T00:02:20.486Z,4.66
2018-04-12T00:04:51.252Z,4.72
2018-04-12T00:07:19.655Z,4.65
2018-04-12T00:09:48.039Z,4.65
2018-04-12T00:12:16.876Z,4.68
2018-04-12T00:14:45.216Z,4.71
2018-04-12T00:17:13.561Z,4.69
2018-04-12T00:19:41.961Z,4.61
2018-04-12T00:22:10.306Z,4.56
2018-04-12T00:24:38.663Z,4.61
2018-04-12T00:27:07.388Z,4.62
2018-04-12T00:29:35.796Z,4.57
2018-04-12T00:32:04.204Z,4.59
2018-04-12T00:34:32.551Z,4.64
2018-04-12T00:37:00.899Z,4.59
2018-04-12T00:39:29.295Z,4.55
2018-04-12T00:41:57.667Z,4.60
2018-04-12T00:44:26.162Z,4.60
2018-04-12T00:46:54.522Z,4.56
2018-04-12T00:49:23.434Z,4.53
2018-04-12T00:51:51.801Z,4.61
2018-04-12T00:54:20.245Z,4.57
2018-04-12T00:56:49.878Z,4.51
2018-04-12T00:59:18.274Z,4.53
2018-04-12T01:01:46.612Z,4.58
2018-04-12T01:04:15.420Z,4.66
2018-04-12T01:06:43.763Z,4.59
2018-04-12T01:09:12.150Z,4.59
2018-04-12T01:11:40.632Z,4.68
2018-04-12T01:14:09.494Z,4.69
2018-04-12T01:16:37.866Z,4.74
2018-04-12T01:19:07.093Z,4.71
2018-04-12T01:21:35.868Z,4.76
2018-04-12T01:24:04.197Z,4.76
2018-04-12T01:26:32.572Z,4.83
2018-04-12T01:29:01.316Z,4.81
2018-04-12T01:31:29.682Z,4.84
2018-04-12T01:33:58.161Z,4.84
2018-04-12T01:36:26.653Z,4.78
2018-04-12T01:38:54.992Z,4.86
2018-04-12T01:41:23.993Z,4.85
2018-04-12T01:43:52.367Z,4.84
2018-04-12T01:46:20.790Z,4.84
2018-04-12T01:48:49.419Z,4.82
2018-04-12T01:51:17.754Z,4.85
2018-04-12T01:53:46.089Z,4.83
2018-04-12T01:56:15.555Z,4.84
2018-04-12T01:58:43.929Z,4.74
2018-04-12T02:01:12.251Z,4.80
2018-04-12T02:03:41.675Z,4.77
2018-04-12T02:06:10.074Z,4.71
2018-04-12T02:08:38.407Z,4.75
2018-04-12T02:11:06.923Z,4.69
2018-04-12T02:13:35.269Z,4.69
2018-04-12T02:16:03.595Z,4.73
2018-04-12T02:18:32.637Z,4.68
2018-04-12T02:21:02.910Z,4.66
2018-04-12T02:23:31.291Z,4.67
2018-04-12T02:26:00.574Z,4.71
2018-04-12T02:28:28.944Z,4.65
2018-04-12T02:30:57.828Z,4.69
2018-04-12T02:33:26.409Z,4.70
2018-04-12T02:35:54.748Z,4.72
2018-04-12T02:38:23.336Z,4.72
2018-04-12T02:40:51.754Z,4.70
2018-04-12T02:43:20.168Z,4.76
2018-04-12T02:45:48.740Z,4.68
2018-04-12T02:48:17.360Z,4.71
2018-04-12T02:50:45.696Z,4.75
2018-04-12T02:53:14.957Z,4.77
2018-04-12T02:55:44.854Z,4.79
2018-04-12T02:58:13.228Z,4.82
2018-04-12T03:00:41.607Z,4.80
2018-04-12T03:03:10.076Z,4.79
2018-04-12T03:05:38.410Z,4.79
2018-04-12T03:08:06.781Z,4.76
2018-04-12T03:10:35.126Z,4.80
2018-04-12T03:13:03.501Z,4.76
2018-04-12T03:15:31.849Z,4.74
2018-04-12T03:18:00.219Z,4.76
2018-04-12T03:20:28.596Z,4.71
2018-04-12T03:22:57.009Z,4.77
2018-04-12T03:25:26.859Z,4.70
2018-04-12T03:27:55.188Z,4.75
2018-04-12T03:30:23.643Z,4.76
2018-04-12T03:32:52.384Z,4.77
2018-04-12T03:35:21.015Z,4.75
2018-04-12T03:37:49.399Z,4.82
2018-04-12T03:40:18.227Z,4.81
2018-04-12T03:42:46.586Z,4.78
2018-04-12T03:45:14.950Z,4.77
2018-04-12T03:47:43.813Z,4.84
2018-04-12T03:50:12.173Z,4.80
2018-04-12T03:52:40.495Z,4.79
2018-04-12T03:55:09.727Z,4.76
2018-04-12T03:57:38.066Z,4.79
2018-04-12T04:00:06.464Z,4.82
2018-04-12T04:02:34.860Z,4.84
2018-04-12T04:05:05.040Z,4.80
2018-04-12T04:07:33.364Z,4.86
2018-04-12T04:10:01.815Z,4.86
2018-04-12T04:12:31.143Z,4.84
2018-04-12T04:18:12.242Z,4.77
2018-04-12T04:20:52.436Z,4.77
2018-04-12T04:23:20.713Z,4.82
2018-04-12T04:25:49.239Z,4.87
2018-04-12T04:28:18.967Z,4.84
2018-04-12T04:30:47.490Z,4.89
2018-04-12T04:33:16.005Z,4.94
2018-04-12T04:35:44.533Z,4.91
2018-04-12T04:38:12.877Z,4.88
2018-04-12T04:40:41.222Z,4.90
2018-04-12T04:43:10.526Z,4.95
2018-04-12T04:45:38.867Z,4.95
2018-04-12T04:48:07.209Z,4.97
2018-04-12T04:50:36.573Z,4.99
2018-04-12T04:53:05.980Z,5.00
2018-04-12T04:55:34.358Z,4.99
2018-04-12T04:58:02.766Z,4.98
2018-04-12T05:00:31.116Z,5.04
2018-04-12T05:02:59.599Z,5.02
2018-04-12T05:05:28.183Z,5.03
2018-04-12T05:07:56.559Z,5.08
2018-04-12T05:10:24.963Z,5.07
2018-04-12T05:12:53.389Z,5.12
2018-04-12T05:15:22.113Z,5.14
2018-04-12T05:17:50.552Z,5.19
2018-04-12T05:20:19.051Z,5.17
2018-04-12T05:22:47.403Z,5.18
2018-04-12T05:25:15.774Z,5.17
2018-04-12T05:27:44.314Z,5.29
2018-04-12T05:30:13.472Z,5.32
2018-04-12T05:32:41.827Z,5.29
2018-04-12T05:35:10.689Z,5.32
2018-04-12T05:37:39.038Z,5.38
2018-04-12T05:40:07.412Z,5.39
2018-04-12T05:42:35.819Z,5.42
2018-04-12T05:45:04.346Z,5.44
2018-04-12T05:47:32.790Z,5.47
2018-04-12T05:50:02.098Z,5.50
2018-04-12T05:52:30.580Z,5.51
2018-04-12T05:54:59.161Z,5.60
2018-04-12T05:57:27.827Z,5.60
2018-04-12T05:59:58.577Z,5.63
2018-04-12T06:02:26.952Z,5.70
2018-04-12T06:04:55.561Z,5.73
2018-04-12T06:07:24.111Z,5.79
2018-04-12T06:09:52.497Z,5.77
2018-04-12T06:12:21.297Z,5.84
2018-04-12T06:14:50.770Z,5.94
2018-04-12T06:17:19.162Z,6.03
2018-04-12T06:19:47.936Z,5.98
2018-04-12T06:22:16.331Z,5.99
2018-04-12T06:24:44.737Z,6.05
2018-04-12T06:27:13.193Z,6.14
2018-04-12T06:29:41.528Z,6.17
2018-04-12T06:32:10.033Z,6.30
2018-04-12T06:34:39.606Z,6.38
2018-04-12T06:37:07.973Z,6.41
2018-04-12T06:39:36.331Z,6.50
2018-04-12T06:42:05.658Z,6.50
2018-04-12T06:44:34.096Z,6.59
2018-04-12T06:47:02.561Z,6.58
2018-04-12T06:49:31.800Z,6.69
2018-04-12T06:52:00.177Z,6.84
2018-04-12T06:54:28.750Z,7.00
2018-04-12T06:56:57.252Z,6.99
2018-04-12T06:59:25.707Z,7.07
2018-04-12T07:01:54.151Z,7.16
2018-04-12T07:04:23.741Z,7.15
2018-04-12T07:06:52.084Z,7.21
2018-04-12T07:09:20.665Z,7.34
2018-04-12T07:11:49.687Z,7.25
2018-04-12T07:14:18.311Z,7.43
2018-04-12T07:16:47.656Z,7.39
2018-04-12T07:19:16.357Z,7.41
2018-04-12T07:21:44.675Z,7.51
2018-04-12T07:24:13.187Z,7.62
2018-04-12T07:26:42.605Z,7.57
2018-04-12T07:29:10.922Z,7.64
2018-04-12T07:31:39.275Z,7.78
2018-04-12T07:34:08.541Z,7.90
2018-04-12T07:36:36.892Z,7.96
2018-04-12T07:39:06.162Z,8.14
2018-04-12T07:41:34.688Z,8.12
2018-04-12T07:44:08.801Z,8.23
2018-04-12T07:46:37.209Z,8.21
2018-04-12T07:49:05.745Z,8.39
2018-04-12T07:51:34.143Z,8.45
2018-04-12T07:54:02.715Z,8.63
2018-04-12T07:56:31.462Z,8.73
2018-04-12T07:58:59.937Z,8.80
2018-04-12T08:01:29.283Z,8.83
2018-04-12T08:03:57.950Z,8.90
2018-04-12T08:06:26.815Z,8.88
2018-04-12T08:08:56.436Z,8.91
2018-04-12T08:11:25.050Z,8.94
2018-04-12T08:13:53.430Z,9.20
2018-04-12T08:16:22.267Z,9.21
2018-04-12T08:18:51.050Z,9.33
2018-04-12T08:21:19.539Z,9.34
2018-04-12T08:23:48.255Z,9.19
2018-04-12T08:26:16.800Z,9.39
2018-04-12T08:28:45.157Z,9.39
2018-04-12T08:31:13.565Z,9.42
2018-04-12T08:33:41.934Z,9.36
2018-04-12T08:36:10.442Z,9.47
2018-04-12T08:38:38.812Z,9.50
2018-04-12T08:41:07.259Z,9.57
2018-04-12T08:43:35.722Z,9.56
2018-04-12T08:46:04.192Z,9.53
2018-04-12T08:48:32.532Z,9.63
2018-04-12T08:51:01.052Z,9.67
2018-04-12T08:53:30.578Z,9.76
2018-04-12T08:55:59.088Z,9.76
2018-04-12T08:58:27.498Z,9.77
2018-04-12T09:00:56.072Z,9.66
2018-04-12T09:03:24.581Z,9.68
2018-04-12T09:05:53.099Z,9.84
2018-04-12T09:08:21.570Z,10.11
2018-04-12T09:10:50.279Z,10.14
2018-04-12T09:13:18.827Z,10.11
2018-04-12T09:15:48.299Z,10.56
2018-04-12T09:18:16.748Z,10.81
2018-04-12T09:20:45.161Z,11.00
2018-04-12T09:23:13.559Z,11.07
2018-04-12T09:25:42.315Z,11.23
2018-04-12T09:28:10.794Z,10.91
2018-04-12T09:30:39.183Z,11.42
2018-04-12T09:33:07.554Z,11.87
2018-04-12T09:35:35.959Z,11.35
2018-04-12T09:38:04.358Z,11.22
2018-04-12T09:40:32.706Z,11.81
2018-04-12T09:43:01.117Z,11.74
2018-04-12T09:45:29.599Z,11.50
2018-04-12T09:47:57.960Z,11.76
2018-04-12T09:50:26.361Z,12.29
2018-04-12T09:52:54.833Z,12.59
2018-04-12T09:55:23.414Z,12.30
2018-04-12T09:57:52.373Z,12.70
2018-04-12T10:00:27.631Z,13.33
2018-04-12T10:02:56.024Z,13.81
2018-04-12T10:05:30.250Z,14.40
2018-04-12T10:10:57.809Z,13.23
2018-04-12T10:13:26.249Z,12.41
2018-04-12T10:15:54.708Z,12.24
2018-04-12T10:18:23.161Z,12.42
2018-04-12T10:20:51.945Z,12.66
2018-04-12T10:23:20.369Z,12.55
2018-04-12T10:25:49.868Z,12.38
2018-04-12T10:28:18.474Z,12.30
2018-04-12T10:30:47.092Z,12.73
2018-04-12T10:33:15.540Z,12.13
2018-04-12T10:35:44.801Z,12.65
2018-04-12T10:38:13.165Z,13.33
2018-04-12T10:40:42.364Z,12.79
2018-04-12T10:43:10.706Z,13.41
2018-04-12T10:45:39.068Z,13.46
2018-04-12T10:48:07.439Z,14.06
2018-04-12T10:50:35.794Z,14.17
2018-04-12T10:53:04.189Z,14.47
2018-04-12T10:55:32.964Z,14.42
2018-04-12T10:58:01.313Z,14.31
2018-04-12T11:00:29.810Z,14.14
2018-04-12T11:02:58.201Z,14.25
2018-04-12T11:05:26.547Z,13.29
2018-04-12T11:07:55.009Z,12.91
2018-04-12T11:10:23.396Z,12.68
2018-04-12T11:12:52.314Z,12.78
2018-04-12T11:15:20.700Z,13.34
2018-04-12T11:17:49.304Z,13.53
2018-04-12T11:20:17.667Z,13.84
2018-04-12T11:22:46.205Z,14.43
2018-04-12T11:25:15.238Z,14.72
2018-04-12T11:27:43.693Z,15.08
2018-04-12T11:30:12.090Z,14.72
2018-04-12T11:32:40.498Z,14.12
2018-04-12T11:35:09.008Z,14.18
2018-04-12T11:37:37.316Z,14.34
2018-04-12T11:40:05.771Z,14.67
2018-04-12T11:42:34.239Z,13.76
2018-04-12T11:45:02.603Z,14.28
2018-04-12T11:47:31.106Z,13.90
2018-04-12T11:49:59.480Z,13.29
2018-04-12T11:52:27.819Z,13.11
2018-04-12T11:54:56.234Z,12.96
2018-04-12T11:57:24.606Z,13.10
2018-04-12T11:59:53.323Z,13.02
2018-04-12T12:02:21.898Z,12.89
2018-04-12T12:04:50.434Z,12.51
2018-04-12T12:07:18.905Z,12.47
2018-04-12T12:09:47.887Z,11.98
2018-04-12T12:12:16.411Z,11.70
2018-04-12T12:14:44.862Z,11.52
2018-04-12T12:17:13.647Z,11.90
2018-04-12T12:19:42.038Z,11.93
2018-04-12T12:22:10.387Z,12.11
2018-04-12T12:24:38.987Z,12.16
2018-04-12T12:27:07.683Z,11.94
2018-04-12T12:29:36.040Z,11.86
2018-04-12T12:32:05.258Z,11.94
2018-04-12T12:34:34.334Z,11.76
2018-04-12T12:37:02.720Z,11.80
2018-04-12T12:39:31.627Z,11.63
2018-04-12T12:42:00.018Z,11.49
2018-04-12T12:44:28.669Z,11.26
2018-04-12T12:46:57.175Z,10.81
2018-04-12T12:49:25.755Z,10.77
2018-04-12T12:51:54.300Z,10.95
2018-04-12T12:54:23.469Z,10.88
2018-04-12T12:56:52.165Z,10.99
2018-04-12T12:59:20.697Z,11.13
2018-04-12T13:01:49.189Z,11.47
2018-04-12T13:04:17.607Z,11.60
2018-04-12T13:06:46.078Z,11.41
2018-04-12T13:09:15.122Z,11.55
2018-04-12T13:11:43.475Z,11.46
2018-04-12T13:14:11.841Z,11.24
2018-04-12T13:16:40.548Z,11.18
2018-04-12T13:19:09.159Z,11.23
2018-04-12T13:21:37.577Z,11.14
2018-04-12T13:24:06.083Z,11.57
2018-04-12T13:26:34.478Z,11.59
2018-04-12T13:29:02.824Z,11.87
2018-04-12T13:31:31.256Z,11.73
2018-04-12T13:33:59.620Z,11.60
2018-04-12T13:36:28.033Z,11.06
2018-04-12T13:38:57.444Z,11.02
2018-04-12T13:41:25.829Z,10.97
2018-04-12T13:43:54.292Z,10.72
2018-04-12T13:46:23.620Z,10.61
2018-04-12T13:48:52.054Z,10.50
2018-04-12T13:51:20.550Z,10.28
2018-04-12T13:53:49.768Z,10.28
2018-04-12T13:56:18.946Z,10.62
2018-04-12T13:58:47.508Z,10.75
2018-04-12T14:01:16.447Z,10.84
2018-04-12T14:03:44.918Z,10.85
2018-04-12T14:06:13.303Z,10.40
2018-04-12T14:08:41.775Z,9.97
2018-04-12T14:11:10.238Z,9.79
2018-04-12T14:13:38.583Z,9.71
2018-04-12T14:16:07.740Z,9.73
2018-04-12T14:18:36.173Z,9.64
2018-04-12T14:21:04.562Z,9.37
2018-04-12T14:23:33.647Z,9.45
2018-04-12T14:26:02.044Z,9.46
2018-04-12T14:28:30.511Z,9.26
2018-04-12T14:30:59.667Z,9.49
2018-04-12T14:33:28.314Z,9.40
2018-04-12T14:35:56.809Z,9.68
2018-04-12T14:38:25.471Z,9.76
2018-04-12T14:40:54.191Z,10.27
2018-04-12T14:43:22.769Z,10.51
2018-04-12T14:45:51.561Z,10.48
2018-04-12T14:48:20.115Z,10.26
2018-04-12T14:50:48.559Z,10.26
2018-04-12T14:53:17.408Z,9.86
2018-04-12T14:55:45.926Z,10.03
2018-04-12T14:58:14.347Z,10.16
2018-04-12T15:00:44.252Z,10.11
2018-04-12T15:03:12.670Z,9.91
2018-04-12T15:05:41.028Z,9.97
2018-04-12T15:08:10.321Z,9.98
2018-04-12T15:10:38.678Z,9.76
2018-04-12T15:13:07.136Z,9.48
2018-04-12T15:15:36.274Z,9.36
2018-04-12T15:18:04.684Z,9.54
2018-04-12T15:20:33.092Z,9.59
2018-04-12T15:23:01.590Z,9.58
2018-04-12T15:25:30.058Z,9.33
2018-04-12T15:27:58.441Z,9.35
2018-04-12T15:30:27.120Z,9.30
2018-04-12T15:32:55.597Z,9.32
2018-04-12T15:35:23.965Z,9.29
2018-04-12T15:37:52.953Z,9.23
2018-04-12T15:40:21.353Z,9.32
2018-04-12T15:42:49.735Z,9.17
2018-04-12T15:45:19.075Z,9.21
2018-04-12T15:47:47.587Z,9.38
2018-04-12T15:50:16.338Z,9.49
2018-04-12T15:52:45.016Z,9.44
2018-04-12T15:55:17.814Z,9.38
2018-04-12T15:57:47.243Z,9.46
2018-04-12T16:00:15.746Z,9.52
2018-04-12T16:02:44.116Z,9.36
2018-04-12T16:05:12.521Z,9.35
2018-04-12T16:07:40.954Z,9.37
2018-04-12T16:10:09.367Z,9.43
2018-04-12T16:12:37.850Z,9.36
2018-04-12T16:15:06.329Z,9.24
2018-04-12T16:17:34.876Z,9.22
2018-04-12T16:20:03.264Z,8.94
2018-04-12T16:22:31.881Z,9.01
2018-04-12T16:25:00.259Z,9.05
2018-04-12T16:27:28.938Z,9.00
2018-04-12T16:29:57.561Z,8.97
2018-04-12T16:32:25.960Z,8.94
2018-04-12T16:34:54.593Z,8.84
2018-04-12T16:37:23.157Z,8.90
2018-04-12T16:39:51.728Z,8.77
2018-04-12T16:42:20.313Z,8.76
2018-04-12T16:44:48.799Z,8.79
2018-04-12T16:47:17.331Z,8.60
2018-04-12T16:49:46.569Z,8.47
2018-04-12T16:52:15.391Z,8.58
2018-04-12T16:54:44.162Z,8.55
2018-04-12T16:57:12.699Z,8.39
2018-04-12T16:59:41.116Z,8.42
2018-04-12T17:02:09.531Z,8.38
2018-04-12T17:04:38.891Z,8.22
2018-04-12T17:07:07.257Z,8.24
2018-04-12T17:09:35.985Z,8.12
2018-04-12T17:12:04.761Z,7.91
2018-04-12T17:14:33.230Z,7.73
2018-04-12T17:17:01.698Z,7.80
2018-04-12T17:19:30.191Z,7.76
2018-04-12T17:21:58.838Z,7.80
2018-04-12T17:24:27.534Z,7.66
2018-04-12T17:26:56.299Z,7.51
2018-04-12T17:29:25.242Z,7.49
2018-04-12T17:31:54.053Z,7.49
2018-04-12T17:34:22.582Z,7.39
2018-04-12T17:36:50.990Z,7.45
2018-04-12T17:39:19.777Z,7.39
2018-04-12T17:41:48.592Z,7.36
2018-04-12T17:44:17.020Z,7.34
2018-04-12T17:46:45.429Z,7.22
2018-04-12T17:49:14.013Z,7.21
2018-04-12T17:51:42.704Z,7.12
2018-04-12T17:54:11.120Z,7.10
2018-04-12T17:56:39.498Z,7.10
2018-04-12T17:59:07.964Z,7.18
2018-04-12T18:01:36.403Z,7.15
2018-04-12T18:04:06.751Z,7.18
2018-04-12T18:06:35.144Z,7.07
2018-04-12T18:09:03.477Z,6.93
2018-04-12T18:11:31.926Z,6.92
2018-04-12T18:14:00.402Z,6.95
2018-04-12T18:16:29.083Z,6.97
2018-04-12T18:18:57.551Z,6.90
2018-04-12T18:21:25.935Z,6.85
2018-04-12T18:23:54.761Z,6.76
2018-04-12T18:26:23.266Z,6.87
2018-04-12T18:28:51.847Z,6.84
2018-04-12T18:31:20.416Z,6.73
2018-04-12T18:33:49.718Z,6.72
2018-04-12T18:36:18.562Z,6.70
2018-04-12T18:38:47.142Z,6.70
2018-04-12T18:41:16.155Z,6.69
2018-04-12T18:43:44.528Z,6.65
2018-04-12T18:46:13.059Z,6.64
2018-04-12T18:48:41.447Z,6.64
2018-04-12T18:51:09.803Z,6.59
2018-04-12T18:53:38.279Z,6.70
2018-04-12T18:56:07.183Z,6.59
2018-04-12T18:58:35.629Z,6.62
2018-04-12T19:01:04.009Z,6.58
2018-04-12T19:03:33.166Z,6.55
2018-04-12T19:06:01.508Z,6.54
2018-04-12T19:08:30.105Z,6.60
2018-04-12T19:10:58.665Z,6.54
2018-04-12T19:13:27.480Z,6.63
2018-04-12T19:15:56.098Z,6.52
2018-04-12T19:18:25.103Z,6.57
2018-04-12T19:20:57.412Z,6.46
2018-04-12T19:23:26.663Z,6.54
2018-04-12T19:25:55.496Z,6.49
2018-04-12T19:28:24.011Z,6.55
2018-04-12T19:30:52.684Z,6.55
2018-04-12T19:33:22.099Z,6.57
2018-04-12T19:35:50.838Z,6.51
2018-04-12T19:38:20.447Z,6.57
2018-04-12T19:40:49.080Z,6.61
2018-04-12T19:43:17.772Z,6.56
2018-04-12T19:45:47.430Z,6.60
2018-04-12T19:48:16.874Z,6.57
2018-04-12T19:50:45.388Z,6.59
2018-04-12T19:53:13.869Z,6.53
2018-04-12T19:55:42.346Z,6.52
2018-04-12T19:58:10.769Z,6.50
2018-04-12T20:00:39.345Z,6.48
2018-04-12T20:03:07.796Z,6.54
2018-04-12T20:05:36.302Z,6.50
2018-04-12T20:08:06.048Z,6.56
2018-04-12T20:10:34.432Z,6.48
2018-04-12T20:13:02.798Z,6.55
2018-04-12T20:15:31.756Z,6.58
2018-04-12T20:18:00.219Z,6.57
2018-04-12T20:20:28.635Z,6.60
2018-04-12T20:22:57.215Z,6.64
2018-04-12T20:25:25.658Z,6.57
2018-04-12T20:27:54.211Z,6.62
2018-04-12T20:30:22.724Z,6.65
2018-04-12T20:32:51.306Z,6.75
2018-04-12T20:35:20.107Z,6.71
2018-04-12T20:37:48.527Z,6.74
2018-04-12T20:40:17.758Z,6.73
2018-04-12T20:42:46.419Z,6.76
2018-04-12T20:45:14.803Z,6.80
2018-04-12T20:47:43.285Z,6.79
2018-04-12T20:50:11.654Z,6.80
2018-04-12T20:52:41.273Z,6.85
2018-04-12T20:55:09.631Z,6.75
2018-04-12T20:57:39.055Z,6.75
2018-04-12T21:00:08.257Z,6.77
2018-04-12T21:02:37.044Z,6.70
2018-04-12T21:05:05.413Z,6.71
2018-04-12T21:07:34.026Z,6.78
2018-04-12T21:10:03.462Z,6.78
2018-04-12T21:12:31.826Z,6.80
2018-04-12T21:15:00.269Z,6.76
2018-04-12T21:17:28.978Z,6.74
2018-04-12T21:19:57.359Z,6.79
2018-04-12T21:22:26.034Z,6.78
2018-04-12T21:24:54.537Z,6.79
2018-04-12T21:27:23.192Z,6.71
2018-04-12T21:29:51.568Z,6.71
2018-04-12T21:32:20.441Z,6.79
2018-04-12T21:34:48.852Z,6.76
2018-04-12T21:37:17.748Z,6.77
2018-04-12T21:39:46.151Z,6.70
2018-04-12T21:42:14.664Z,6.73
2018-04-12T21:44:43.044Z,6.79
2018-04-12T21:47:11.464Z,6.81
2018-04-12T21:49:39.961Z,6.78
2018-04-12T21:52:08.602Z,6.83
2018-04-12T21:54:37.286Z,6.72
2018-04-12T21:57:05.665Z,6.85
2018-04-12T21:59:34.919Z,6.91
2018-04-12T22:02:03.242Z,6.93
2018-04-12T22:04:32.092Z,6.98
2018-04-12T22:07:01.275Z,6.97
2018-04-12T22:09:29.669Z,6.95
2018-04-12T22:11:58.200Z,7.02
2018-04-12T22:14:27.003Z,6.97
2018-04-12T22:16:55.575Z,7.04
2018-04-12T22:19:25.310Z,7.10
2018-04-12T22:21:54.662Z,7.06
2018-04-12T22:24:23.088Z,7.08
2018-04-12T22:26:51.530Z,7.13
2018-04-12T22:29:20.797Z,7.07
2018-04-12T22:31:49.325Z,7.10
2018-04-12T22:34:17.724Z,7.10
2018-04-12T22:36:46.464Z,7.12
2018-04-12T22:39:14.852Z,7.12
2018-04-12T22:41:43.286Z,7.12
2018-04-12T22:44:11.954Z,7.21
2018-04-12T22:46:40.329Z,7.25
2018-04-12T22:49:08.673Z,7.27
2018-04-12T22:51:37.148Z,7.28
2018-04-12T22:54:05.995Z,7.31
2018-04-12T22:56:35.334Z,7.27
2018-04-12T22:59:04.388Z,7.30
2018-04-12T23:01:32.818Z,7.30
2018-04-12T23:04:01.197Z,7.33
2018-04-12T23:06:30.058Z,7.34
2018-04-12T23:08:58.772Z,7.35
2018-04-12T23:11:27.211Z,7.34
2018-04-12T23:13:55.684Z,7.36
2018-04-12T23:16:24.268Z,7.39
2018-04-12T23:18:52.647Z,7.39
2018-04-12T23:21:21.210Z,7.41
2018-04-12T23:23:50.954Z,7.39
2018-04-12T23:37:55.511Z,7.46
2018-04-12T23:40:24.002Z,7.50
2018-04-12T23:42:52.667Z,7.54
2018-04-12T23:45:21.033Z,7.55
2018-04-12T23:47:49.418Z,7.58
2018-04-12T23:50:18.316Z,7.61
2018-04-12T23:52:46.826Z,7.65
2018-04-12T23:55:15.701Z,7.64
2018-04-12T23:57:44.087Z,7.66
